Time;durP1;ratioP1;P1;durP2;ratioP2;P2;SDS_P1;SDS_P2;PMS_P1;PMS_P2;Temp;Humidity;BMP_temperature;BMP_pressure;BME280_temperature;BME280_humidity;BME280_pressure;Samples;Min_cycle;Max_cycle;Signal;HPM_P1;HPM_P2
2020/12/24 00:01:26;;;;;;;;;;;;;;;8.67;94.06;98120.28;5050386;28;19927;-85
2020/12/24 00:03:51;;;;;;;;;;;;;;;8.66;94.42;98123.75;5051137;28;20392;-86
2020/12/24 00:06:16;;;;;;;;;;;;;;;8.48;94.21;98117.56;5067318;28;19954;-85
2020/12/24 00:08:42;;;;;;;;;;;;;;;8.43;93.58;98117.75;5049241;28;20389;-84
2020/12/24 00:11:08;;;;;;;;;;;;;;;8.39;94.17;98105.88;5067815;28;20011;-85
2020/12/24 00:13:34;;;;;;;;;;;;;;;8.16;95.09;98099.91;5063021;28;19947;-84
2020/12/24 00:15:59;;;;;;;;;;;;;;;8.12;92.74;98088.09;5071665;28;19950;-85
2020/12/24 00:18:25;;;;;;;;;;;;;;;8.01;93.55;98091.94;5054856;28;19959;-84
2020/12/24 00:20:50;;;;;;;;;;;;;;;8.06;93.30;98080.59;5071801;28;19983;-86
2020/12/24 00:23:16;;;;;;;;;;;;;;;8.06;92.94;98078.03;5062794;28;20261;-85
2020/12/24 00:25:41;;;;;;;;;;;;;;;8.05;90.75;98085.78;5054709;28;19923;-84
2020/12/24 00:28:07;;;;;;;;;;;;;;;7.99;92.55;98080.91;5052682;28;19919;-85
2020/12/24 00:30:33;;;;;;;;;;;;;;;8.06;91.59;98088.31;5053117;28;20392;-85
2020/12/24 00:32:58;;;;;;;;;;;;;;;7.95;92.37;98081.00;5070294;28;19920;-84
2020/12/24 00:35:23;;;;;;;;;;;;;;;8.07;91.68;98082.25;5070740;28;19959;-85
2020/12/24 00:37:49;;;;;;;;;;;;;;;7.99;90.57;98081.72;5063051;28;20805;-86
2020/12/24 00:40:14;;;;;;;;;;;;;;;7.91;91.67;98074.31;5075136;28;19931;-86
2020/12/24 00:42:39;;;;;;;;;;;;;;;7.81;91.53;98072.97;5064254;28;20404;-86
2020/12/24 00:45:05;;;;;;;;;;;;;;;7.83;89.74;98076.31;5079622;28;20418;-84
2020/12/24 00:47:30;;;;;;;;;;;;;;;7.72;90.14;98070.72;5061634;28;19922;-84
2020/12/24 00:49:56;;;;;;;;;;;;;;;7.81;89.86;98060.16;5063344;28;20384;-85
2020/12/24 00:52:21;;;;;;;;;;;;;;;7.85;89.94;98071.97;5062312;28;19927;-85
2020/12/24 00:54:46;;;;;;;;;;;;;;;7.70;90.53;98067.38;5065093;28;19916;-84
2020/12/24 00:57:12;;;;;;;;;;;;;;;7.65;91.53;98064.16;5064445;28;20392;-84
2020/12/24 00:59:37;;;;;;;;;;;;;;;7.78;91.48;98060.28;5065172;28;20006;-86
2020/12/24 01:02:03;;;;;;;;;;;;;;;7.65;89.99;98059.03;5080769;28;20019;-85
2020/12/24 01:04:28;;;;;;;;;;;;;;;7.66;90.30;98058.13;5071834;28;19920;-85
2020/12/24 01:06:54;;;;;;;;;;;;;;;7.63;91.38;98053.13;5077512;28;19966;-84
2020/12/24 01:09:19;;;;;;;;;;;;;;;7.59;91.76;98061.81;5075032;28;20683;-86
2020/12/24 01:11:44;;;;;;;;;;;;;;;7.60;91.23;98063.50;5064761;28;19916;-87
2020/12/24 01:14:10;;;;;;;;;;;;;;;7.51;90.86;98057.78;5076839;28;19943;-84
2020/12/24 01:16:35;;;;;;;;;;;;;;;7.60;91.98;98053.25;5078694;28;19916;-84
2020/12/24 01:19:00;;;;;;;;;;;;;;;7.57;90.52;98050.75;5054208;28;19929;-85
2020/12/24 01:21:27;;;;;;;;;;;;;;;7.72;90.97;98047.66;5044077;28;20089;-85
2020/12/24 01:23:52;;;;;;;;;;;;;;;7.61;92.06;98044.66;5058850;28;19946;-85
2020/12/24 01:26:17;;;;;;;;;;;;;;;7.78;92.46;98052.59;5062940;28;20393;-86
2020/12/24 01:28:43;;;;;;;;;;;;;;;7.60;92.02;98058.38;5041382;28;20444;-84
2020/12/24 01:31:08;;;;;;;;;;;;;;;7.51;91.92;98050.09;5060029;28;19917;-83
2020/12/24 01:33:33;;;;;;;;;;;;;;;7.54;92.39;98060.22;5042429;28;19960;-83
2020/12/24 01:35:59;;;;;;;;;;;;;;;7.41;92.28;98068.38;5057327;28;19954;-84
2020/12/24 01:38:25;;;;;;;;;;;;;;;7.44;92.55;98074.25;5056360;28;19925;-85
2020/12/24 01:40:58;;;;;;;;;;;;;;;7.34;91.68;98078.00;5059376;28;19971;-83
2020/12/24 01:43:23;;;;;;;;;;;;;;;7.50;92.07;98068.94;5058651;28;20278;-83
2020/12/24 01:45:52;;;;;;;;;;;;;;;7.38;92.07;98069.34;5042376;28;19912;-84
2020/12/24 01:48:18;;;;;;;;;;;;;;;7.37;92.55;98052.31;5057360;28;19924;-84
2020/12/24 01:50:43;;;;;;;;;;;;;;;7.41;91.70;98064.13;5063823;28;19916;-86
2020/12/24 01:53:08;;;;;;;;;;;;;;;7.35;91.99;98059.22;5067887;28;19924;-85
2020/12/24 01:55:34;;;;;;;;;;;;;;;7.39;92.24;98060.78;5059568;28;19920;-85
2020/12/24 01:57:59;;;;;;;;;;;;;;;7.35;92.99;98054.09;5065092;28;19932;-84
2020/12/24 02:00:25;;;;;;;;;;;;;;;7.38;92.49;98042.88;5036974;28;19979;-85
2020/12/24 02:02:50;;;;;;;;;;;;;;;7.33;92.07;98045.63;5059469;28;20353;-84
2020/12/24 02:05:15;;;;;;;;;;;;;;;7.32;91.07;98042.22;5043872;28;19920;-85
2020/12/24 02:07:41;;;;;;;;;;;;;;;7.29;92.66;98038.91;5061408;28;19920;-83
2020/12/24 02:10:06;;;;;;;;;;;;;;;7.19;91.22;98032.44;5058170;28;20469;-84
2020/12/24 02:12:32;;;;;;;;;;;;;;;7.30;92.57;98020.13;5052455;28;20413;-84
2020/12/24 02:14:57;;;;;;;;;;;;;;;7.33;91.58;98020.00;5062337;28;19912;-85
2020/12/24 02:17:22;;;;;;;;;;;;;;;7.29;90.61;98033.78;5044246;28;19917;-84
2020/12/24 02:19:48;;;;;;;;;;;;;;;7.27;92.09;98030.44;5085509;28;19920;-84
2020/12/24 02:22:13;;;;;;;;;;;;;;;7.15;90.52;98029.16;5072111;28;19916;-86
2020/12/24 02:24:42;;;;;;;;;;;;;;;7.03;90.26;98038.06;5063721;28;19951;-85
2020/12/24 02:27:07;;;;;;;;;;;;;;;7.11;90.61;98042.94;5082383;28;19912;-86
2020/12/24 02:29:33;;;;;;;;;;;;;;;7.06;92.42;98040.53;5067907;28;19918;-85
2020/12/24 02:31:58;;;;;;;;;;;;;;;7.06;90.80;98040.53;5065891;28;19946;-83
2020/12/24 02:34:24;;;;;;;;;;;;;;;7.03;91.69;98032.13;5080794;28;19926;-86
2020/12/24 02:36:49;;;;;;;;;;;;;;;7.03;90.80;98038.06;5068691;28;19922;-84
2020/12/24 02:39:15;;;;;;;;;;;;;;;7.08;91.14;98035.38;5082125;28;19930;-83
2020/12/24 02:41:41;;;;;;;;;;;;;;;6.98;91.20;98031.41;5064897;28;19955;-83
2020/12/24 02:44:06;;;;;;;;;;;;;;;7.01;92.00;98029.59;5073412;28;19951;-84
2020/12/24 02:46:32;;;;;;;;;;;;;;;6.92;92.69;98032.47;5073167;28;19931;-86
2020/12/24 02:48:57;;;;;;;;;;;;;;;7.06;92.42;98032.84;5070312;28;19916;-83
2020/12/24 02:51:23;;;;;;;;;;;;;;;7.07;90.22;98029.41;5063544;28;19916;-86
2020/12/24 02:53:48;;;;;;;;;;;;;;;7.00;92.45;98027.94;5066974;28;20585;-83
2020/12/24 02:56:13;;;;;;;;;;;;;;;7.08;90.15;98037.91;5071924;28;20404;-84
2020/12/24 02:58:39;;;;;;;;;;;;;;;7.18;90.65;98033.31;5068665;28;20317;-84
2020/12/24 03:01:04;;;;;;;;;;;;;;;7.01;90.64;98024.50;5068016;28;19995;-84
2020/12/24 03:03:30;;;;;;;;;;;;;;;7.00;90.10;98033.06;5094257;28;19916;-85
2020/12/24 03:05:55;;;;;;;;;;;;;;;6.99;91.68;98028.81;5073122;28;20006;-85
2020/12/24 03:08:21;;;;;;;;;;;;;;;7.11;91.83;98036.06;5076341;28;19942;-84
2020/12/24 03:10:46;;;;;;;;;;;;;;;7.06;91.32;98032.84;5066942;28;19999;-83
2020/12/24 03:13:12;;;;;;;;;;;;;;;7.03;90.46;98027.84;5067644;28;19931;-83
2020/12/24 03:15:37;;;;;;;;;;;;;;;7.16;90.39;98028.28;5068089;28;19922;-84
2020/12/24 03:18:02;;;;;;;;;;;;;;;6.97;89.27;98027.19;5058854;28;19964;-84
2020/12/24 03:20:28;;;;;;;;;;;;;;;7.02;90.39;98033.81;5064041;28;20050;-85
2020/12/24 03:22:53;;;;;;;;;;;;;;;6.97;90.94;98025.47;5043778;28;19916;-83
2020/12/24 03:25:18;;;;;;;;;;;;;;;7.01;91.05;98029.59;5048147;28;19916;-83
2020/12/24 03:27:43;;;;;;;;;;;;;;;7.00;90.27;98022.81;5052757;28;19917;-85
2020/12/24 03:30:10;;;;;;;;;;;;;;;7.03;89.25;98022.72;5045585;28;19927;-84
2020/12/24 03:32:35;;;;;;;;;;;;;;;6.97;89.86;98012.66;5054642;28;19920;-86
2020/12/24 03:35:01;;;;;;;;;;;;;;;7.01;88.86;98015.97;5052659;28;19916;-83
2020/12/24 03:37:26;;;;;;;;;;;;;;;6.96;88.45;98021.25;5045895;28;19919;-83
2020/12/24 03:39:52;;;;;;;;;;;;;;;7.01;89.46;98019.38;5063900;28;19961;-84
2020/12/24 03:42:17;;;;;;;;;;;;;;;6.89;91.61;98024.91;5061240;28;19941;-83
2020/12/24 03:44:42;;;;;;;;;;;;;;;6.79;91.65;98014.09;5071465;28;19919;-85
2020/12/24 03:47:08;;;;;;;;;;;;;;;6.81;92.11;98006.41;5046518;28;19916;-84
2020/12/24 03:49:33;;;;;;;;;;;;;;;6.79;93.04;98013.28;5043956;28;19952;-86
2020/12/24 03:51:58;;;;;;;;;;;;;;;6.79;92.63;98009.00;5042714;28;19931;-86
2020/12/24 03:54:24;;;;;;;;;;;;;;;6.86;91.81;98010.47;5075158;28;19916;-84
2020/12/24 03:56:49;;;;;;;;;;;;;;;6.91;92.63;98007.75;5052413;28;19920;-84
2020/12/24 03:59:15;;;;;;;;;;;;;;;6.82;92.65;98008.06;5052293;28;19913;-85
2020/12/24 04:01:40;;;;;;;;;;;;;;;6.65;92.97;98001.75;5043903;28;19924;-86
2020/12/24 04:04:05;;;;;;;;;;;;;;;6.72;94.04;97996.47;5045078;28;20570;-85
2020/12/24 04:06:31;;;;;;;;;;;;;;;6.76;94.12;98000.59;5050622;28;19927;-84
2020/12/24 04:08:56;;;;;;;;;;;;;;;6.65;93.84;97991.53;5053514;28;19986;-84
2020/12/24 04:11:21;;;;;;;;;;;;;;;6.63;94.05;97992.47;5044098;28;19912;-86
2020/12/24 04:13:47;;;;;;;;;;;;;;;6.47;94.22;97994.69;5062259;28;20914;-84
2020/12/24 04:16:12;;;;;;;;;;;;;;;6.53;94.28;97997.06;5055653;28;19927;-84
2020/12/24 04:18:38;;;;;;;;;;;;;;;6.54;94.49;97990.22;5069117;28;20342;-86
2020/12/24 04:21:03;;;;;;;;;;;;;;;6.55;94.13;97999.56;5077734;28;19920;-86
2020/12/24 04:23:28;;;;;;;;;;;;;;;6.55;95.66;98000.41;5071697;28;20017;-85
2020/12/24 04:25:54;;;;;;;;;;;;;;;6.45;93.93;98009.22;5075851;28;19912;-83
2020/12/24 04:28:19;;;;;;;;;;;;;;;6.51;95.50;97998.81;5073657;28;19943;-84
2020/12/24 04:30:44;;;;;;;;;;;;;;;6.54;95.28;97998.72;5073517;28;19916;-86
2020/12/24 04:33:11;;;;;;;;;;;;;;;6.41;95.84;98002.53;5062819;28;19927;-86
2020/12/24 04:35:37;;;;;;;;;;;;;;;6.37;96.40;98006.94;5078951;28;19920;-87
2020/12/24 04:38:02;;;;;;;;;;;;;;;6.44;96.02;97992.22;5062135;28;19916;-86
2020/12/24 04:40:28;;;;;;;;;;;;;;;6.37;95.75;98000.97;5058868;28;20320;-86
2020/12/24 04:42:53;;;;;;;;;;;;;;;6.45;97.00;98004.13;5058441;28;20010;-85
2020/12/24 04:45:19;;;;;;;;;;;;;;;6.35;96.75;98013.81;5061420;28;19916;-84
2020/12/24 04:47:44;;;;;;;;;;;;;;;6.54;95.92;98000.44;5053645;28;19919;-84
2020/12/24 04:50:09;;;;;;;;;;;;;;;6.35;95.79;97997.63;5047559;28;19912;-83
2020/12/24 04:52:35;;;;;;;;;;;;;;;6.28;95.96;97987.59;5054391;28;19959;-84
2020/12/24 04:55:04;;;;;;;;;;;;;;;6.21;96.30;97986.09;5048671;28;19916;-84
2020/12/24 04:57:30;;;;;;;;;;;;;;;6.32;96.05;97992.59;5063746;28;19916;-84
2020/12/24 04:59:56;;;;;;;;;;;;;;;6.21;95.40;97995.50;5056901;28;19949;-84
2020/12/24 05:02:21;;;;;;;;;;;;;;;6.25;97.00;97995.38;5060406;28;20064;-84
2020/12/24 05:04:47;;;;;;;;;;;;;;;6.43;96.54;97998.22;5055378;28;19916;-84
2020/12/24 05:07:12;;;;;;;;;;;;;;;6.35;97.12;98001.03;5067604;28;19916;-84
2020/12/24 05:09:37;;;;;;;;;;;;;;;6.16;97.57;97993.09;5051700;28;19916;-84
2020/12/24 05:12:03;;;;;;;;;;;;;;;6.23;98.58;97998.84;5058378;28;19928;-84
2020/12/24 05:14:29;;;;;;;;;;;;;;;6.25;97.44;98003.03;5068216;28;19965;-84
2020/12/24 05:17:00;;;;;;;;;;;;;;;6.30;98.45;97991.84;5067238;28;19915;-84
2020/12/24 05:19:26;;;;;;;;;;;;;;;6.19;97.68;98003.22;5057649;28;19920;-84
2020/12/24 05:21:52;;;;;;;;;;;;;;;6.13;97.11;97997.44;5067788;28;19924;-84
2020/12/24 05:24:28;;;;;;;;;;;;;;;6.25;98.11;97997.09;5051228;28;20309;-84
2020/12/24 05:27:15;;;;;;;;;;;;;;;6.05;97.67;97988.28;5067172;28;20296;-84
2020/12/24 05:29:41;;;;;;;;;;;;;;;6.10;98.04;97985.59;5065883;28;19916;-84
2020/12/24 05:32:07;;;;;;;;;;;;;;;6.05;97.76;97978.06;5066175;28;19961;-84
2020/12/24 05:34:32;;;;;;;;;;;;;;;6.08;98.50;97979.69;5049234;28;19912;-84
2020/12/24 05:37:14;;;;;;;;;;;;;;;6.05;98.20;97979.78;5054406;28;20012;-84
2020/12/24 05:39:39;;;;;;;;;;;;;;;6.16;97.68;97987.97;5065083;28;19973;-83
2020/12/24 05:42:05;;;;;;;;;;;;;;;6.17;98.20;97987.09;5049414;28;20281;-84
2020/12/24 05:44:30;;;;;;;;;;;;;;;6.23;97.53;97993.75;5057078;28;19916;-84
2020/12/24 05:46:56;;;;;;;;;;;;;;;6.14;97.35;97992.28;5067969;28;19920;-84
2020/12/24 05:49:21;;;;;;;;;;;;;;;6.35;97.90;97987.41;5057694;28;19973;-84
2020/12/24 05:52:00;;;;;;;;;;;;;;;6.26;97.06;97991.09;5050616;28;19974;-85
2020/12/24 05:54:26;;;;;;;;;;;;;;;6.14;96.99;98007.63;5057626;28;19915;-84
2020/12/24 05:56:52;;;;;;;;;;;;;;;6.00;97.29;98002.09;5059487;28;20285;-85
2020/12/24 05:59:18;;;;;;;;;;;;;;;6.09;97.49;98001.84;5067236;28;19916;-85
2020/12/24 06:02:02;;;;;;;;;;;;;;;6.08;98.13;98000.13;5050574;28;19955;-84
2020/12/24 06:04:54;;;;;;;;;;;;;;;6.12;97.56;98006.84;5084732;28;19916;-85
2020/12/24 06:07:19;;;;;;;;;;;;;;;6.27;98.06;98001.28;5078779;28;19920;-84
2020/12/24 06:09:45;;;;;;;;;;;;;;;6.10;97.16;98003.50;5084530;28;20288;-85
2020/12/24 06:12:18;;;;;;;;;;;;;;;6.19;97.69;97998.09;5066621;28;19920;-85
2020/12/24 06:14:47;;;;;;;;;;;;;;;6.23;97.58;97999.69;5059377;28;19916;-85
2020/12/24 06:17:13;;;;;;;;;;;;;;;6.21;97.73;98005.72;5055042;28;19916;-85
2020/12/24 06:19:39;;;;;;;;;;;;;;;6.13;97.40;98008.50;5054594;28;20274;-84
2020/12/24 06:22:04;;;;;;;;;;;;;;;6.08;97.88;98010.38;5064674;28;20293;-86
2020/12/24 06:24:30;;;;;;;;;;;;;;;6.07;97.89;98008.69;5055687;28;19923;-86
2020/12/24 06:26:56;;;;;;;;;;;;;;;6.04;98.33;98011.34;5056192;28;19920;-85
2020/12/24 06:29:22;;;;;;;;;;;;;;;6.11;97.57;98009.44;5065147;28;19920;-86
2020/12/24 06:31:47;;;;;;;;;;;;;;;6.05;97.46;98008.75;5065175;28;19946;-85
2020/12/24 06:34:22;;;;;;;;;;;;;;;6.20;97.89;98015.13;5049927;28;19948;-86
2020/12/24 06:36:48;;;;;;;;;;;;;;;6.33;97.77;98007.06;5064833;28;19916;-85
2020/12/24 06:39:13;;;;;;;;;;;;;;;6.21;97.94;98014.22;5059355;28;19973;-85
2020/12/24 06:41:39;;;;;;;;;;;;;;;6.20;97.32;98020.25;5066169;28;20019;-83
2020/12/24 06:44:05;;;;;;;;;;;;;;;6.11;97.87;98015.38;5065466;28;19947;-86
2020/12/24 06:46:50;;;;;;;;;;;;;;;6.16;97.74;98018.66;5057417;28;20020;-85
2020/12/24 06:49:19;;;;;;;;;;;;;;;6.15;97.42;98019.53;5064778;28;19922;-85
2020/12/24 06:51:45;;;;;;;;;;;;;;;6.07;97.81;98027.44;5056112;28;20376;-86
2020/12/24 06:54:20;;;;;;;;;;;;;;;6.09;98.54;98032.50;5049373;28;19947;-84
2020/12/24 06:56:46;;;;;;;;;;;;;;;6.05;98.10;98033.47;5057131;28;20413;-86
2020/12/24 06:59:17;;;;;;;;;;;;;;;6.09;98.20;98029.94;5066898;28;19927;-85
2020/12/24 07:01:42;;;;;;;;;;;;;;;6.08;98.34;98028.25;5075173;28;19931;-85
2020/12/24 07:04:08;;;;;;;;;;;;;;;6.20;98.42;98029.59;5065760;28;19916;-85
2020/12/24 07:06:54;;;;;;;;;;;;;;;6.04;98.45;98044.56;5065441;28;19922;-85
2020/12/24 07:09:19;;;;;;;;;;;;;;;6.11;98.02;98046.03;5083460;28;19916;-83
2020/12/24 07:11:45;;;;;;;;;;;;;;;6.04;98.66;98044.56;5066130;28;19927;-85
2020/12/24 07:14:22;;;;;;;;;;;;;;;6.05;98.50;98046.25;5084176;28;19916;-86
2020/12/24 07:16:48;;;;;;;;;;;;;;;6.26;97.86;98045.59;5083319;28;19916;-85
2020/12/24 07:19:16;;;;;;;;;;;;;;;6.24;98.40;98052.47;5051136;28;20434;-86
2020/12/24 07:21:49;;;;;;;;;;;;;;;6.06;98.38;98058.13;5029781;28;19927;-83
2020/12/24 07:24:15;;;;;;;;;;;;;;;6.22;98.33;98054.25;5030158;28;20408;-84
2020/12/24 07:26:43;;;;;;;;;;;;;;;5.92;99.11;98066.16;5046690;28;20018;-84
2020/12/24 07:29:10;;;;;;;;;;;;;;;6.19;98.98;98059.44;5019076;28;20397;-84
2020/12/24 07:31:35;;;;;;;;;;;;;;;5.91;99.50;98069.63;5019221;28;19983;-84
2020/12/24 07:34:01;;;;;;;;;;;;;;;5.96;99.69;98066.97;5035587;28;19998;-83
2020/12/24 07:36:27;;;;;;;;;;;;;;;6.16;99.09;98067.22;5030170;28;19956;-84
2020/12/24 07:38:52;;;;;;;;;;;;;;;6.14;99.30;98065.59;5029560;28;19916;-83
2020/12/24 07:41:18;;;;;;;;;;;;;;;6.12;99.86;98072.47;5035921;28;19921;-84
2020/12/24 07:43:44;;;;;;;;;;;;;;;6.00;100.00;98079.59;5046342;28;20025;-84
2020/12/24 07:46:09;;;;;;;;;;;;;;;5.86;100.00;98092.75;5034697;28;20011;-84
2020/12/24 07:48:35;;;;;;;;;;;;;;;5.58;100.00;98118.16;5044633;28;20062;-84
2020/12/24 07:51:06;;;;;;;;;;;;;;;4.77;100.00;98132.94;5037602;28;20255;-84
2020/12/24 07:53:32;;;;;;;;;;;;;;;4.49;100.00;98132.69;5046104;28;19928;-82
2020/12/24 07:56:05;;;;;;;;;;;;;;;4.10;100.00;98151.28;5044997;28;20345;-83
2020/12/24 07:58:30;;;;;;;;;;;;;;;3.86;100.00;98151.78;5045549;28;19923;-83
2020/12/24 08:00:56;;;;;;;;;;;;;;;3.82;100.00;98160.34;5028898;28;20003;-84
2020/12/24 08:03:21;;;;;;;;;;;;;;;3.68;100.00;98161.44;5029265;28;20003;-84
2020/12/24 08:05:47;;;;;;;;;;;;;;;3.90;100.00;98176.31;5047173;28;19920;-84
2020/12/24 08:08:13;;;;;;;;;;;;;;;3.50;100.00;98174.50;5039927;28;19916;-84
2020/12/24 08:10:39;;;;;;;;;;;;;;;3.63;100.00;98175.97;5028760;28;19931;-84
2020/12/24 08:13:05;;;;;;;;;;;;;;;3.56;100.00;98189.66;5022635;28;19924;-84
2020/12/24 08:15:31;;;;;;;;;;;;;;;3.69;100.00;98192.81;5036494;28;19920;-84
2020/12/24 08:18:00;;;;;;;;;;;;;;;3.55;100.00;98204.06;5038424;28;19924;-85
2020/12/24 08:20:28;;;;;;;;;;;;;;;3.25;100.00;98210.50;5047912;28;19922;-84
2020/12/24 08:22:59;;;;;;;;;;;;;;;3.47;100.00;98210.19;5060068;28;20385;-84
2020/12/24 08:25:24;;;;;;;;;;;;;;;3.53;100.00;98212.59;5046333;28;19922;-84
2020/12/24 08:27:50;;;;;;;;;;;;;;;3.34;100.00;98215.44;5045751;28;19916;-85
2020/12/24 08:30:15;;;;;;;;;;;;;;;3.24;100.00;98215.59;5046377;28;19927;-84
2020/12/24 08:32:40;;;;;;;;;;;;;;;3.12;100.00;98234.44;5058314;28;20009;-85
2020/12/24 08:35:12;;;;;;;;;;;;;;;3.09;100.00;98226.88;5067087;28;20027;-84
2020/12/24 08:37:38;;;;;;;;;;;;;;;3.15;100.00;98226.78;5068488;28;19937;-85
2020/12/24 08:40:19;;;;;;;;;;;;;;;3.81;100.00;98235.06;5068527;28;19919;-85
2020/12/24 08:42:45;;;;;;;;;;;;;;;3.85;100.00;98241.78;5069482;28;19955;-85
2020/12/24 08:45:12;;;;;;;;;;;;;;;3.63;100.00;98242.16;5052623;28;19916;-84
2020/12/24 08:47:37;;;;;;;;;;;;;;;3.74;100.00;98249.59;5051935;28;19984;-85
2020/12/24 08:50:02;;;;;;;;;;;;;;;3.55;100.00;98256.69;5058402;28;19916;-84
2020/12/24 08:52:33;;;;;;;;;;;;;;;3.99;100.00;98260.22;5061670;28;21006;-84
2020/12/24 08:55:03;;;;;;;;;;;;;;;3.57;100.00;98267.72;5064105;28;20011;-83
2020/12/24 08:57:28;;;;;;;;;;;;;;;3.11;100.00;98270.94;5051609;28;19962;-84
2020/12/24 08:59:58;;;;;;;;;;;;;;;3.64;100.00;98274.38;5059985;28;20328;-84
2020/12/24 09:02:24;;;;;;;;;;;;;;;3.61;100.00;98282.06;5050561;28;19912;-84
2020/12/24 09:04:53;;;;;;;;;;;;;;;3.45;100.00;98289.09;5061489;28;19920;-85
2020/12/24 09:07:22;;;;;;;;;;;;;;;3.54;100.00;98293.22;5050434;28;19936;-84
2020/12/24 09:09:48;;;;;;;;;;;;;;;3.43;100.00;98298.47;5054183;28;19923;-85
2020/12/24 09:12:19;;;;;;;;;;;;;;;3.34;100.00;98311.31;5069328;28;19916;-84
2020/12/24 09:17:53;;;;;;;;;;;;;;;3.67;100.00;98314.22;5061684;28;19931;-85
2020/12/24 09:20:52;;;;;;;;;;;;;;;3.74;100.00;98319.22;5061957;28;19931;-85
2020/12/24 09:23:52;;;;;;;;;;;;;;;3.87;100.00;98321.56;5003879;28;20020;-85
2020/12/24 09:32:55;;;;;;;;;;;;;;;;;;;;;
2020/12/24 09:35:21;;;;;;;;;;;;;;;3.76;99.81;98345.50;5070488;28;19912;-87
2020/12/24 09:37:47;;;;;;;;;;;;;;;3.66;100.00;98343.94;5056625;28;19922;-86
2020/12/24 09:40:12;;;;;;;;;;;;;;;4.08;100.00;98339.06;5064744;28;19920;-87
2020/12/24 09:42:38;;;;;;;;;;;;;;;3.86;100.00;98350.47;5067778;28;19916;-88
2020/12/24 09:45:03;;;;;;;;;;;;;;;3.85;100.00;98353.84;5050223;28;19935;-88
2020/12/24 09:47:28;;;;;;;;;;;;;;;4.45;100.00;98356.28;5067309;28;20036;-86
2020/12/24 09:49:54;;;;;;;;;;;;;;;4.48;97.70;98353.66;5060584;28;20007;-89
2020/12/24 09:52:19;;;;;;;;;;;;;;;4.52;98.21;98362.94;5059763;28;20264;-87
2020/12/24 09:54:44;;;;;;;;;;;;;;;4.88;97.58;98365.69;5060371;28;20415;-87
2020/12/24 09:57:10;;;;;;;;;;;;;;;5.16;95.09;98367.69;5047130;28;19924;-87
2020/12/24 09:59:35;;;;;;;;;;;;;;;4.78;96.96;98369.25;5062143;28;19923;-88
2020/12/24 10:02:00;;;;;;;;;;;;;;;4.53;98.43;98379.91;5047235;28;20337;-84
2020/12/24 10:04:26;;;;;;;;;;;;;;;4.54;97.20;98383.31;5059632;28;20492;-85
2020/12/24 10:06:51;;;;;;;;;;;;;;;4.80;98.04;98378.56;5066644;28;19920;-85
2020/12/24 10:09:17;;;;;;;;;;;;;;;5.22;95.05;98380.31;5065015;28;19959;-85
2020/12/24 10:11:46;;;;;;;;;;;;;;;5.06;94.98;98391.69;5062926;28;20012;-86
2020/12/24 10:14:12;;;;;;;;;;;;;;;4.63;95.41;98401.00;5050328;28;19948;-87
2020/12/24 10:16:37;;;;;;;;;;;;;;;4.31;97.43;98404.94;5065792;28;20293;-86
2020/12/24 10:19:03;;;;;;;;;;;;;;;4.25;99.68;98407.59;5042547;28;19928;-86
2020/12/24 10:21:29;;;;;;;;;;;;;;;4.85;96.70;98411.63;5054202;28;20262;-86
2020/12/24 10:23:54;;;;;;;;;;;;;;;4.64;98.24;98414.59;5061801;28;19963;-86
2020/12/24 10:26:20;;;;;;;;;;;;;;;4.02;99.47;98423.22;5046664;28;19926;-85
2020/12/24 10:28:46;;;;;;;;;;;;;;;3.68;100.00;98428.78;5073008;28;20014;-85
2020/12/24 10:31:11;;;;;;;;;;;;;;;3.38;100.00;98434.28;5060109;28;20035;-85
2020/12/24 10:33:36;;;;;;;;;;;;;;;3.21;100.00;98437.84;5060922;28;20583;-86
2020/12/24 10:36:02;;;;;;;;;;;;;;;3.35;100.00;98430.94;5045651;28;19916;-84
2020/12/24 10:38:28;;;;;;;;;;;;;;;3.08;100.00;98434.63;5046433;28;20385;-86
2020/12/24 10:40:53;;;;;;;;;;;;;;;3.37;100.00;98432.59;5045180;28;19927;-86
2020/12/24 10:43:19;;;;;;;;;;;;;;;3.28;100.00;98439.47;5053250;28;19992;-85
2020/12/24 10:45:48;;;;;;;;;;;;;;;2.90;100.00;98438.22;5047382;28;20534;-85
2020/12/24 10:48:14;;;;;;;;;;;;;;;3.18;100.00;98430.28;5056290;28;20031;-84
2020/12/24 10:50:41;;;;;;;;;;;;;;;3.03;100.00;98438.91;5055342;28;20321;-85
2020/12/24 10:53:07;;;;;;;;;;;;;;;3.22;100.00;98437.00;5056394;28;19939;-81
2020/12/24 10:55:32;;;;;;;;;;;;;;;2.93;100.00;98442.41;5075558;28;19916;-83
2020/12/24 10:57:57;;;;;;;;;;;;;;;2.84;100.00;98429.78;5064671;28;20015;-80
2020/12/24 11:00:23;;;;;;;;;;;;;;;2.89;100.00;98436.50;5041966;28;19924;-83
2020/12/24 11:02:48;;;;;;;;;;;;;;;3.06;100.00;98438.06;5049645;28;19991;-83
2020/12/24 11:05:14;;;;;;;;;;;;;;;3.03;100.00;98443.16;5060105;28;19959;-82
2020/12/24 11:07:39;;;;;;;;;;;;;;;2.87;100.00;98440.78;5060598;28;19916;-81
2020/12/24 11:10:04;;;;;;;;;;;;;;;2.96;100.00;98446.63;5059574;28;19920;-83
2020/12/24 11:12:30;;;;;;;;;;;;;;;3.01;100.00;98443.19;5056242;28;19928;-83
2020/12/24 11:14:55;;;;;;;;;;;;;;;2.84;100.00;98442.50;5049786;28;19920;-84
2020/12/24 11:17:21;;;;;;;;;;;;;;;3.13;100.00;98450.69;5041898;28;19920;-83
2020/12/24 11:19:47;;;;;;;;;;;;;;;3.06;100.00;98443.13;5047180;28;19985;-82
2020/12/24 11:22:12;;;;;;;;;;;;;;;3.05;100.00;98443.97;5066039;28;20393;-84
2020/12/24 11:24:37;;;;;;;;;;;;;;;2.85;100.00;98445.03;5052642;28;19927;-80
2020/12/24 11:27:03;;;;;;;;;;;;;;;2.92;100.00;98441.56;5036385;28;20297;-84
2020/12/24 11:29:28;;;;;;;;;;;;;;;2.99;100.00;98441.50;5052277;28;20053;-84
2020/12/24 11:31:56;;;;;;;;;;;;;;;2.96;100.00;98442.38;5048812;28;20436;-82
2020/12/24 11:34:21;;;;;;;;;;;;;;;2.69;100.00;98464.69;5049068;28;19980;-81
2020/12/24 11:36:47;;;;;;;;;;;;;;;2.83;100.00;98450.97;5032504;28;19995;-81
2020/12/24 11:39:12;;;;;;;;;;;;;;;2.79;100.00;98445.09;5049082;28;20369;-82
2020/12/24 11:41:38;;;;;;;;;;;;;;;2.65;100.00;98459.66;5033197;28;19940;-83
2020/12/24 11:44:03;;;;;;;;;;;;;;;2.85;100.00;98457.75;5032628;28;20061;-83
2020/12/24 11:46:28;;;;;;;;;;;;;;;2.78;100.00;98463.72;5047076;28;19963;-83
2020/12/24 11:48:54;;;;;;;;;;;;;;;2.70;100.00;98452.81;5045690;28;19919;-82
2020/12/24 11:51:20;;;;;;;;;;;;;;;2.84;100.00;98458.59;5034649;28;19932;-80
2020/12/24 11:53:47;;;;;;;;;;;;;;;2.72;100.00;98461.28;5034444;28;20534;-81
2020/12/24 11:56:13;;;;;;;;;;;;;;;2.87;100.00;98462.81;5035273;28;19948;-83
2020/12/24 11:58:38;;;;;;;;;;;;;;;2.92;100.00;98472.09;5026499;28;19920;-82
2020/12/24 12:01:03;;;;;;;;;;;;;;;2.96;100.00;98469.50;5043809;28;19919;-79
2020/12/24 12:03:28;;;;;;;;;;;;;;;2.72;100.00;98468.91;5043540;28;19920;-82
2020/12/24 12:05:54;;;;;;;;;;;;;;;2.75;100.00;98471.41;5060812;28;20013;-82
2020/12/24 12:08:19;;;;;;;;;;;;;;;2.80;100.00;98469.66;5063778;28;21153;-82
2020/12/24 12:10:44;;;;;;;;;;;;;;;2.82;100.00;98475.56;5031398;28;21081;-82
2020/12/24 12:13:10;;;;;;;;;;;;;;;2.83;100.00;98477.28;5040192;28;19929;-80
2020/12/24 12:15:35;;;;;;;;;;;;;;;2.90;100.00;98478.91;5043800;28;20527;-79
2020/12/24 12:18:00;;;;;;;;;;;;;;;2.72;100.00;98484.16;5033315;28;19974;-81
2020/12/24 12:20:26;;;;;;;;;;;;;;;2.69;100.00;98490.13;5064958;28;19923;-82
2020/12/24 12:22:52;;;;;;;;;;;;;;;2.75;100.00;98494.28;5047574;28;20071;-82
2020/12/24 12:25:18;;;;;;;;;;;;;;;2.73;100.00;98490.91;5059150;28;19926;-79
2020/12/24 12:27:44;;;;;;;;;;;;;;;2.74;100.00;98487.53;5065304;28;20360;-82
2020/12/24 12:30:12;;;;;;;;;;;;;;;2.66;100.00;98494.38;5062639;28;20384;-80
2020/12/24 12:32:38;;;;;;;;;;;;;;;2.59;100.00;98493.56;5061678;28;19937;-80
2020/12/24 12:35:04;;;;;;;;;;;;;;;2.68;100.00;98488.41;5062069;28;20407;-80
2020/12/24 12:37:29;;;;;;;;;;;;;;;2.61;100.00;98491.88;5062333;28;19950;-81
2020/12/24 12:39:55;;;;;;;;;;;;;;;2.58;100.00;98496.13;5044838;28;20032;-80
2020/12/24 12:42:20;;;;;;;;;;;;;;;2.62;100.00;98493.56;5060372;28;19916;-81
2020/12/24 12:44:46;;;;;;;;;;;;;;;2.80;100.00;98497.63;5080323;28;20305;-79
2020/12/24 12:47:11;;;;;;;;;;;;;;;2.80;100.00;98507.78;5063152;28;20416;-81
2020/12/24 12:49:36;;;;;;;;;;;;;;;2.72;100.00;98504.50;5063508;28;19998;-81
2020/12/24 12:52:04;;;;;;;;;;;;;;;2.69;100.00;98509.59;5065965;28;19928;-81
2020/12/24 12:54:30;;;;;;;;;;;;;;;2.63;100.00;98517.28;5065098;28;20672;-81
2020/12/24 12:56:55;;;;;;;;;;;;;;;2.59;100.00;98518.16;5081026;28;19916;-81
2020/12/24 12:59:20;;;;;;;;;;;;;;;2.62;100.00;98524.06;5047922;28;20298;-80
2020/12/24 13:01:46;;;;;;;;;;;;;;;2.57;100.00;98519.88;5054591;28;19999;-80